createdAt,value
2023-05-23T00:00:21.333Z,0.00
2023-05-23T00:01:21.331Z,0.00
2023-05-23T00:02:21.343Z,0.00
2023-05-23T00:03:21.408Z,0.00
2023-05-23T00:04:21.253Z,0.00
2023-05-23T00:05:21.132Z,0.00
2023-05-23T00:06:21.083Z,0.00
2023-05-23T00:07:21.094Z,0.00
2023-05-23T00:08:20.996Z,0.00
2023-05-23T00:09:20.972Z,0.00
2023-05-23T00:10:20.918Z,0.00
2023-05-23T00:11:20.874Z,0.00
2023-05-23T00:12:20.838Z,0.00
2023-05-23T00:13:20.821Z,0.00
2023-05-23T00:14:20.785Z,0.00
2023-05-23T00:15:20.719Z,0.00
2023-05-23T00:16:20.729Z,0.00
2023-05-23T00:17:20.644Z,0.00
2023-05-23T00:18:20.627Z,0.00
2023-05-23T00:19:20.601Z,0.00
2023-05-23T00:20:20.531Z,0.00
2023-05-23T00:21:20.468Z,0.00
2023-05-23T00:22:20.432Z,0.00
2023-05-23T00:23:20.388Z,0.00
2023-05-23T00:24:20.345Z,0.00
2023-05-23T00:25:20.338Z,0.00
2023-05-23T00:26:20.268Z,0.00
2023-05-23T00:27:20.238Z,0.00
2023-05-23T00:28:20.184Z,0.00
2023-05-23T00:29:20.172Z,0.00
2023-05-23T00:30:20.097Z,0.00
2023-05-23T00:31:20.097Z,0.00
2023-05-23T00:32:20.064Z,0.00
2023-05-23T00:33:20.001Z,0.00
2023-05-23T00:34:19.941Z,0.00
2023-05-23T00:35:19.895Z,0.00
2023-05-23T00:36:19.853Z,0.00
2023-05-23T00:37:19.820Z,0.00
2023-05-23T00:38:19.806Z,0.00
2023-05-23T00:39:20.352Z,0.00
2023-05-23T00:40:19.702Z,0.00
2023-05-23T00:41:19.696Z,0.00
2023-05-23T00:42:19.637Z,0.00
2023-05-23T00:43:19.576Z,0.00
2023-05-23T00:44:19.543Z,0.00
2023-05-23T00:45:19.517Z,0.00
2023-05-23T00:46:19.485Z,0.00
2023-05-23T00:47:19.430Z,0.00
2023-05-23T00:48:19.377Z,0.00
2023-05-23T00:49:19.331Z,0.00
2023-05-23T00:50:19.430Z,0.00
2023-05-23T00:51:19.256Z,0.00
2023-05-23T00:52:19.208Z,0.00
2023-05-23T00:53:19.155Z,0.00
2023-05-23T00:54:19.110Z,0.00
2023-05-23T00:55:19.082Z,0.00
2023-05-23T00:56:19.216Z,0.00
2023-05-23T00:57:18.992Z,0.00
2023-05-23T00:58:18.952Z,0.00
2023-05-23T00:59:18.907Z,0.00
2023-05-23T01:00:18.870Z,0.00
2023-05-23T01:01:18.840Z,0.00
2023-05-23T01:02:18.821Z,0.00
2023-05-23T01:03:18.895Z,0.00
2023-05-23T01:04:18.701Z,0.00
2023-05-23T01:05:18.663Z,0.00
2023-05-23T01:06:18.616Z,0.00
2023-05-23T01:07:18.577Z,0.00
2023-05-23T01:08:18.558Z,0.00
2023-05-23T01:09:18.512Z,0.00
2023-05-23T01:10:18.457Z,0.00
2023-05-23T01:11:18.408Z,0.00
2023-05-23T01:12:18.366Z,0.00
2023-05-23T01:13:18.337Z,0.00
2023-05-23T01:14:18.310Z,0.00
2023-05-23T01:15:18.249Z,0.00
2023-05-23T01:16:18.239Z,0.00
2023-05-23T01:17:18.162Z,0.00
2023-05-23T01:18:18.324Z,0.00
2023-05-23T01:19:18.086Z,0.00
2023-05-23T01:20:18.034Z,0.00
2023-05-23T01:21:17.992Z,0.00
2023-05-23T01:22:17.958Z,0.00
2023-05-23T01:23:17.912Z,0.00
2023-05-23T01:24:17.913Z,0.00
2023-05-23T01:25:17.834Z,0.00
2023-05-23T01:26:17.798Z,0.00
2023-05-23T01:27:17.743Z,0.00
2023-05-23T01:28:17.708Z,0.00
2023-05-23T01:29:17.665Z,0.00
2023-05-23T01:30:17.635Z,0.00
2023-05-23T01:31:17.614Z,0.00
2023-05-23T01:32:17.531Z,0.00
2023-05-23T01:33:17.498Z,0.00
2023-05-23T01:34:17.453Z,0.00
2023-05-23T01:35:17.411Z,0.00
2023-05-23T01:36:17.407Z,0.00
2023-05-23T01:37:17.334Z,0.00
2023-05-23T01:38:17.289Z,0.00
2023-05-23T01:39:17.258Z,0.00
2023-05-23T01:40:17.202Z,0.00
2023-05-23T01:41:17.165Z,0.00
2023-05-23T01:42:17.158Z,0.00
2023-05-23T01:43:17.091Z,0.00
2023-05-23T01:44:18.137Z,0.00
2023-05-23T01:45:16.997Z,0.00
2023-05-23T01:46:16.993Z,0.00
2023-05-23T01:47:16.933Z,0.00
2023-05-23T01:48:16.905Z,0.00
2023-05-23T01:49:16.869Z,0.00
2023-05-23T01:50:16.799Z,0.00
2023-05-23T01:51:16.754Z,0.00
2023-05-23T01:52:16.706Z,0.00
2023-05-23T01:53:16.691Z,0.00
2023-05-23T01:54:16.668Z,0.00
2023-05-23T01:55:16.581Z,0.00
2023-05-23T01:56:16.539Z,0.00
2023-05-23T01:57:16.499Z,0.00
2023-05-23T01:58:16.458Z,0.00
2023-05-23T01:59:16.414Z,0.00
2023-05-23T02:00:16.451Z,0.00
2023-05-23T02:01:16.362Z,0.00
2023-05-23T02:02:16.309Z,0.00
2023-05-23T02:03:16.488Z,0.00
2023-05-23T02:04:16.386Z,0.00
2023-05-23T02:05:16.171Z,0.00
2023-05-23T02:06:16.134Z,0.00
2023-05-23T02:07:16.084Z,0.00
2023-05-23T02:08:16.041Z,0.00
2023-05-23T02:09:16.009Z,0.00
2023-05-23T02:10:15.984Z,0.00
2023-05-23T02:11:15.916Z,0.00
2023-05-23T02:12:15.871Z,0.00
2023-05-23T02:13:15.841Z,0.00
2023-05-23T02:14:15.801Z,0.00
2023-05-23T02:15:15.750Z,0.00
2023-05-23T02:16:15.707Z,0.00
2023-05-23T02:17:15.706Z,0.00
2023-05-23T02:18:15.619Z,0.00
2023-05-23T02:19:15.610Z,0.00
2023-05-23T02:20:15.544Z,0.00
2023-05-23T02:21:15.516Z,0.00
2023-05-23T02:22:15.453Z,0.00
2023-05-23T02:23:15.416Z,0.00
2023-05-23T02:24:15.380Z,0.00
2023-05-23T02:25:15.337Z,0.00
2023-05-23T02:26:15.302Z,0.00
2023-05-23T02:27:15.246Z,0.00
2023-05-23T02:28:15.208Z,0.00
2023-05-23T02:29:15.171Z,0.00
2023-05-23T02:30:15.123Z,0.00
2023-05-23T02:31:15.096Z,0.00
2023-05-23T02:32:15.051Z,0.00
2023-05-23T02:33:15.040Z,0.00
2023-05-23T02:34:14.955Z,0.00
2023-05-23T02:35:14.911Z,0.00
2023-05-23T02:36:14.889Z,0.00
2023-05-23T02:37:14.865Z,0.00
2023-05-23T02:38:14.805Z,0.00
2023-05-23T02:39:14.771Z,0.00
2023-05-23T02:40:14.703Z,0.00
2023-05-23T02:41:14.663Z,0.00
2023-05-23T02:42:14.635Z,0.00
2023-05-23T02:43:14.592Z,0.00
2023-05-23T02:44:14.538Z,0.00
2023-05-23T02:45:14.529Z,0.00
2023-05-23T02:46:14.534Z,0.00
2023-05-23T02:47:14.412Z,0.00
2023-05-23T02:48:14.361Z,0.00
2023-05-23T02:49:14.330Z,0.00
2023-05-23T02:50:14.316Z,0.00
2023-05-23T02:51:14.250Z,0.00
2023-05-23T02:52:14.218Z,0.00
2023-05-23T02:53:14.166Z,0.00
2023-05-23T02:54:14.133Z,0.00
2023-05-23T02:55:14.123Z,0.00
2023-05-23T02:56:14.035Z,0.00
2023-05-23T02:57:13.997Z,0.00
2023-05-23T02:58:13.976Z,0.00
2023-05-23T02:59:13.922Z,0.00
2023-05-23T03:00:13.879Z,0.00
2023-05-23T03:01:13.955Z,0.00
2023-05-23T03:02:13.838Z,0.00
2023-05-23T03:03:13.853Z,0.00
2023-05-23T03:04:13.729Z,0.00
2023-05-23T03:05:13.663Z,0.00
2023-05-23T03:06:13.646Z,0.00
2023-05-23T03:07:26.905Z,0.00
2023-05-23T03:08:13.530Z,0.00
2023-05-23T03:09:13.496Z,0.00
2023-05-23T03:10:13.479Z,4.00
2023-05-23T03:11:13.419Z,4.00
2023-05-23T03:12:13.394Z,4.00
2023-05-23T03:13:13.355Z,4.00
2023-05-23T03:14:13.296Z,4.00
2023-05-23T03:15:13.254Z,8.00
2023-05-23T03:16:13.305Z,8.00
2023-05-23T03:17:13.162Z,8.00
2023-05-23T03:18:13.124Z,8.00
2023-05-23T03:19:13.272Z,8.00
2023-05-23T03:20:13.037Z,8.00
2023-05-23T03:21:12.996Z,12.00
2023-05-23T03:22:12.960Z,16.00
2023-05-23T03:23:12.916Z,16.00
2023-05-23T03:24:12.881Z,16.00
2023-05-23T03:25:12.860Z,20.00
2023-05-23T03:26:12.795Z,24.00
2023-05-23T03:27:12.753Z,24.00
2023-05-23T03:28:12.729Z,28.00
2023-05-23T03:29:12.665Z,32.00
2023-05-23T03:30:12.617Z,36.00
2023-05-23T03:31:12.578Z,40.00
2023-05-23T03:32:12.621Z,48.00
2023-05-23T03:33:12.494Z,56.00
2023-05-23T03:34:12.475Z,60.00
2023-05-23T03:35:12.476Z,68.00
2023-05-23T03:36:12.383Z,76.00
2023-05-23T03:37:12.343Z,84.00
2023-05-23T03:38:12.320Z,92.00
2023-05-23T03:39:12.246Z,100.00
2023-05-23T03:40:12.213Z,112.00
2023-05-23T03:41:12.168Z,124.00
2023-05-23T03:42:12.123Z,140.00
2023-05-23T03:43:12.105Z,148.00
2023-05-23T03:44:12.040Z,168.00
2023-05-23T03:45:11.998Z,184.00
2023-05-23T03:46:11.977Z,208.00
2023-05-23T03:47:11.916Z,228.00
2023-05-23T03:48:11.873Z,248.00
2023-05-23T03:49:11.846Z,272.00
2023-05-23T03:50:11.809Z,296.00
2023-05-23T03:51:11.745Z,316.00
2023-05-23T03:52:11.701Z,336.00
2023-05-23T03:53:11.662Z,364.00
2023-05-23T03:54:11.622Z,388.00
2023-05-23T03:55:11.585Z,416.00
2023-05-23T03:56:11.567Z,456.00
2023-05-23T03:57:11.496Z,504.00
2023-05-23T03:58:11.492Z,552.00
2023-05-23T03:59:11.420Z,608.00
2023-05-23T04:00:11.373Z,664.00
2023-05-23T04:01:11.337Z,724.00
2023-05-23T04:02:11.313Z,780.00
2023-05-23T04:03:11.322Z,828.00
2023-05-23T04:04:11.240Z,876.00
2023-05-23T04:05:11.156Z,924.00
2023-05-23T04:06:12.332Z,972.00
2023-05-23T04:07:11.082Z,1020.00
2023-05-23T04:08:11.040Z,1064.00
2023-05-23T04:09:10.996Z,1116.00
2023-05-23T04:10:10.969Z,1168.00
2023-05-23T04:11:10.905Z,1220.00
2023-05-23T04:12:10.870Z,1272.00
2023-05-23T04:13:10.865Z,1324.00
2023-05-23T04:14:10.831Z,1372.00
2023-05-23T04:15:10.773Z,1416.00
2023-05-23T04:16:10.747Z,1460.00
2023-05-23T04:17:10.663Z,1496.00
2023-05-23T04:18:10.622Z,1536.00
2023-05-23T04:19:10.597Z,1572.00
2023-05-23T04:20:10.535Z,1604.00
2023-05-23T04:21:10.533Z,1640.00
2023-05-23T04:22:10.461Z,1676.00
2023-05-23T04:23:10.447Z,1720.00
2023-05-23T04:24:10.375Z,1756.00
2023-05-23T04:25:10.341Z,1796.00
2023-05-23T04:26:10.300Z,1836.00
2023-05-23T04:27:10.298Z,1884.00
2023-05-23T04:28:10.210Z,1932.00
2023-05-23T04:29:10.166Z,1988.00
2023-05-23T04:30:10.177Z,2052.00
2023-05-23T04:31:10.090Z,2136.00
2023-05-23T04:32:10.049Z,2220.00
2023-05-23T04:33:10.094Z,2312.00
2023-05-23T04:34:09.969Z,2396.00
2023-05-23T04:35:11.108Z,2464.00
2023-05-23T04:36:09.884Z,2520.00
2023-05-23T04:37:09.832Z,2568.00
2023-05-23T04:38:09.797Z,2628.00
2023-05-23T04:39:09.838Z,2692.00
2023-05-23T04:40:09.754Z,2760.00
2023-05-23T04:41:09.688Z,2832.00
2023-05-23T04:42:09.644Z,2924.00
2023-05-23T04:43:09.594Z,3012.00
2023-05-23T04:44:09.546Z,3092.00
2023-05-23T04:45:09.904Z,3168.00
2023-05-23T04:46:09.468Z,3236.00
2023-05-23T04:47:09.601Z,3300.00
2023-05-23T04:48:09.393Z,3368.00
2023-05-23T04:49:09.339Z,3460.00
2023-05-23T04:50:09.297Z,3584.00
2023-05-23T04:51:09.289Z,3740.00
2023-05-23T04:52:09.214Z,3936.00
2023-05-23T04:53:09.181Z,4120.00
2023-05-23T04:54:09.142Z,4256.00
2023-05-23T04:55:09.098Z,4360.00
2023-05-23T04:56:09.050Z,4476.00
2023-05-23T04:57:09.043Z,4624.00
2023-05-23T04:58:08.973Z,4832.00
2023-05-23T04:59:08.923Z,5080.00
2023-05-23T05:00:08.902Z,5328.00
2023-05-23T05:01:08.884Z,5592.00
2023-05-23T05:02:08.804Z,5840.00
2023-05-23T05:03:08.830Z,6048.00
2023-05-23T05:04:08.790Z,6224.00
2023-05-23T05:05:08.674Z,6384.00
2023-05-23T05:06:08.641Z,6584.00
2023-05-23T05:07:08.601Z,6820.00
2023-05-23T05:08:08.549Z,7116.00
2023-05-23T05:09:08.529Z,7424.00
2023-05-23T05:10:08.468Z,7700.00
2023-05-23T05:11:08.426Z,7940.00
2023-05-23T05:12:08.392Z,8100.00
2023-05-23T05:13:08.351Z,8172.00
2023-05-23T05:14:08.310Z,8168.00
2023-05-23T05:15:08.344Z,8120.00
2023-05-23T05:16:08.223Z,8076.00
2023-05-23T05:17:08.253Z,8136.00
2023-05-23T05:18:08.225Z,8304.00
2023-05-23T05:19:08.146Z,8480.00
2023-05-23T05:20:08.054Z,8656.00
2023-05-23T05:21:08.043Z,8928.00
2023-05-23T05:22:07.980Z,9296.00
2023-05-23T05:23:07.928Z,9560.00
2023-05-23T05:24:07.892Z,9504.00
2023-05-23T05:25:07.898Z,9076.00
2023-05-23T05:26:07.810Z,8536.00
2023-05-23T05:27:07.779Z,7968.00
2023-05-23T05:28:07.742Z,7464.00
2023-05-23T05:29:07.688Z,7144.00
2023-05-23T05:30:07.654Z,7100.00
2023-05-23T05:31:07.946Z,7300.00
2023-05-23T05:32:07.563Z,7648.00
2023-05-23T05:33:07.583Z,8012.00
2023-05-23T05:34:07.489Z,8416.00
2023-05-23T05:35:07.446Z,8820.00
2023-05-23T05:36:07.413Z,9216.00
2023-05-23T05:37:07.467Z,9656.00
2023-05-23T05:38:07.329Z,10080.00
2023-05-23T05:39:07.287Z,10520.00
2023-05-23T05:40:07.248Z,10960.00
2023-05-23T05:41:09.089Z,11356.00
2023-05-23T05:42:07.169Z,11584.00
2023-05-23T05:43:07.349Z,11688.00
2023-05-23T05:44:07.085Z,11836.00
2023-05-23T05:45:07.038Z,11700.00
2023-05-23T05:46:07.019Z,11068.00
2023-05-23T05:47:06.957Z,10328.00
2023-05-23T05:48:06.968Z,9748.00
2023-05-23T05:49:06.940Z,9388.00
2023-05-23T05:50:06.842Z,9172.00
2023-05-23T05:51:06.806Z,8924.00
2023-05-23T05:52:06.758Z,8588.00
2023-05-23T05:53:06.723Z,8180.00
2023-05-23T05:54:06.692Z,7724.00
2023-05-23T05:55:06.841Z,7256.00
2023-05-23T05:56:06.604Z,6852.00
2023-05-23T05:57:06.564Z,6624.00
2023-05-23T05:58:06.523Z,6580.00
2023-05-23T05:59:06.499Z,6508.00
2023-05-23T06:03:48.961Z,7080.00
2023-05-23T06:04:48.063Z,7308.00
2023-05-23T06:05:46.817Z,7592.00
2023-05-23T06:06:47.033Z,7920.00
2023-05-23T06:07:46.719Z,8176.00
2023-05-23T06:08:49.113Z,8404.00
2023-05-23T06:09:46.627Z,8600.00
2023-05-23T06:10:46.873Z,8804.00
2023-05-23T06:11:46.548Z,8960.00
2023-05-23T06:12:46.677Z,9088.00
2023-05-23T06:13:46.664Z,9244.00
2023-05-23T06:14:46.419Z,9368.00
2023-05-23T06:15:46.382Z,9544.00
2023-05-23T06:16:47.559Z,9776.00
2023-05-23T06:17:46.340Z,10080.00
2023-05-23T06:18:48.602Z,10392.00
2023-05-23T06:19:46.591Z,10672.00
2023-05-23T06:20:46.211Z,11004.00
2023-05-23T06:21:46.153Z,11392.00
2023-05-23T06:22:46.347Z,11824.00
2023-05-23T06:23:46.075Z,12284.00
2023-05-23T06:24:46.146Z,12676.00
2023-05-23T06:25:46.023Z,12976.00
2023-05-23T06:26:45.941Z,13096.00
2023-05-23T06:27:48.218Z,13016.00
2023-05-23T06:28:45.884Z,13004.00
2023-05-23T06:29:45.981Z,13012.00
2023-05-23T06:30:45.775Z,13116.00
2023-05-23T06:31:48.131Z,13428.00
2023-05-23T06:32:45.771Z,13744.00
2023-05-23T06:33:45.805Z,13944.00
2023-05-23T06:34:45.622Z,14152.00
2023-05-23T06:35:45.816Z,14388.00
2023-05-23T06:36:45.533Z,14608.00
2023-05-23T06:37:45.543Z,14672.00
2023-05-23T06:38:46.861Z,14632.00
2023-05-23T06:39:45.415Z,14600.00
2023-05-23T06:40:45.639Z,14640.00
2023-05-23T06:41:45.338Z,14592.00
2023-05-23T06:42:45.457Z,14416.00
2023-05-23T06:43:45.253Z,14076.00
2023-05-23T06:44:45.488Z,13720.00
2023-05-23T06:45:45.218Z,13392.00
2023-05-23T06:46:45.279Z,13292.00
2023-05-23T06:47:45.145Z,13608.00
2023-05-23T06:48:45.065Z,14112.00
2023-05-23T06:49:45.021Z,14292.00
2023-05-23T06:50:45.309Z,14088.00
2023-05-23T06:51:44.972Z,13916.00
2023-05-23T06:52:45.115Z,13772.00
2023-05-23T06:53:44.859Z,13616.00
2023-05-23T06:54:44.822Z,13592.00
2023-05-23T06:55:44.797Z,13656.00
2023-05-23T06:56:44.945Z,13520.00
2023-05-23T06:57:44.700Z,13156.00
2023-05-23T06:58:46.526Z,12720.00
2023-05-23T06:59:44.626Z,12400.00
2023-05-23T07:00:44.627Z,12312.00
2023-05-23T07:01:44.775Z,12548.00
2023-05-23T07:02:44.755Z,13264.00
2023-05-23T07:03:44.690Z,14228.00
2023-05-23T07:04:44.456Z,15204.00
2023-05-23T07:05:44.445Z,15956.00
2023-05-23T07:06:44.379Z,16152.00
2023-05-23T07:07:44.534Z,15864.00
2023-05-23T07:08:44.311Z,15564.00
2023-05-23T07:09:44.324Z,15444.00
2023-05-23T07:10:44.207Z,15588.00
2023-05-23T07:11:44.394Z,15952.00
2023-05-23T07:12:44.138Z,16260.00
2023-05-23T07:13:44.272Z,16392.00
2023-05-23T07:14:44.040Z,16560.00
2023-05-23T07:15:45.193Z,16736.00
2023-05-23T07:16:44.016Z,16804.00
2023-05-23T07:17:44.046Z,16688.00
2023-05-23T07:18:45.002Z,16504.00
2023-05-23T07:19:43.844Z,16396.00
2023-05-23T07:20:43.992Z,16336.00
2023-05-23T07:21:43.772Z,16340.00
2023-05-23T07:22:45.035Z,16480.00
2023-05-23T07:23:43.703Z,16872.00
2023-05-23T07:25:06.755Z,17632.00
2023-05-23T07:25:50.289Z,18144.00
2023-05-23T07:26:43.572Z,18624.00
2023-05-23T07:27:43.633Z,19168.00
2023-05-23T07:28:43.888Z,19744.00
2023-05-23T07:29:43.455Z,20256.00
2023-05-23T07:30:44.600Z,20960.00
2023-05-23T07:31:43.395Z,21536.00
2023-05-23T07:32:43.481Z,22208.00
2023-05-23T07:33:43.316Z,22560.00
2023-05-23T07:34:43.334Z,22720.00
2023-05-23T07:35:43.318Z,23296.00
2023-05-23T07:36:51.323Z,24128.00
2023-05-23T07:37:51.364Z,24864.00
2023-05-23T07:38:50.907Z,25440.00
2023-05-23T07:39:51.451Z,26048.00
2023-05-23T07:40:43.299Z,26752.00
2023-05-23T07:41:43.328Z,27456.00
2023-05-23T07:42:42.991Z,28192.00
2023-05-23T07:43:43.155Z,28896.00
2023-05-23T07:44:42.895Z,29792.00
2023-05-23T07:45:42.840Z,29952.00
2023-05-23T07:46:42.898Z,29952.00
2023-05-23T07:47:42.918Z,31456.00
2023-05-23T07:48:42.729Z,28928.00
2023-05-23T07:49:42.870Z,26784.00
2023-05-23T07:50:42.805Z,25824.00
2023-05-23T07:51:42.621Z,23648.00
2023-05-23T07:52:44.748Z,22656.00
2023-05-23T07:53:42.752Z,23296.00
2023-05-23T07:54:42.715Z,23008.00
2023-05-23T07:55:42.459Z,22624.00
2023-05-23T07:56:43.582Z,22688.00
2023-05-23T07:57:42.384Z,23712.00
2023-05-23T07:58:42.530Z,24576.00
2023-05-23T07:59:42.382Z,24320.00
2023-05-23T08:00:42.433Z,22048.00
2023-05-23T08:01:42.330Z,19264.00
2023-05-23T08:02:43.825Z,17568.00
2023-05-23T08:03:44.096Z,16368.00
2023-05-23T08:04:42.882Z,15784.00
2023-05-23T08:05:43.281Z,15320.00
2023-05-23T08:06:48.663Z,14676.00
2023-05-23T08:07:42.024Z,14284.00
2023-05-23T08:08:41.986Z,14252.00
2023-05-23T08:09:41.972Z,14076.00
2023-05-23T08:10:42.140Z,13788.00
2023-05-23T08:11:41.875Z,12932.00
2023-05-23T08:12:42.061Z,11952.00
2023-05-23T08:13:43.110Z,11252.00
2023-05-23T08:14:50.433Z,10668.00
2023-05-23T08:15:41.716Z,10328.00
2023-05-23T08:17:04.993Z,10080.00
2023-05-23T08:17:41.747Z,9876.00
2023-05-23T08:18:41.721Z,9608.00
2023-05-23T08:19:41.694Z,9432.00
2023-05-23T08:20:41.796Z,9432.00
2023-05-23T08:21:41.897Z,9708.00
2023-05-23T08:22:41.495Z,9980.00
2023-05-23T08:23:41.505Z,10016.00
2023-05-23T08:24:41.404Z,10072.00
2023-05-23T08:25:41.505Z,10364.00
2023-05-23T08:26:41.308Z,10924.00
2023-05-23T08:27:41.293Z,11928.00
2023-05-23T08:28:41.531Z,13196.00
2023-05-23T08:29:41.499Z,14780.00
2023-05-23T08:30:41.532Z,16704.00
2023-05-23T08:31:42.669Z,19296.00
2023-05-23T08:32:41.228Z,21952.00
2023-05-23T08:33:41.047Z,24224.00
2023-05-23T08:34:41.164Z,25472.00
2023-05-23T08:35:40.991Z,26336.00
2023-05-23T08:36:40.970Z,27616.00
2023-05-23T08:37:40.985Z,29408.00
2023-05-23T08:38:40.856Z,31712.00
2023-05-23T08:39:42.253Z,35456.00
2023-05-23T08:40:40.975Z,39904.00
2023-05-23T08:41:40.817Z,43296.00
2023-05-23T08:42:40.776Z,46080.00
2023-05-23T08:43:40.697Z,46880.00
2023-05-23T08:44:41.068Z,47040.00
2023-05-23T08:45:40.590Z,47936.00
2023-05-23T08:46:41.710Z,53120.00
2023-05-23T08:47:40.549Z,51552.00
2023-05-23T08:48:41.688Z,43456.00
2023-05-23T08:49:40.455Z,37376.00
2023-05-23T08:50:40.663Z,35040.00
2023-05-23T08:51:40.370Z,34368.00
2023-05-23T08:52:40.689Z,34560.00
2023-05-23T08:53:40.299Z,36096.00
2023-05-23T08:54:40.519Z,41824.00
2023-05-23T08:55:40.468Z,43712.00
2023-05-23T08:56:40.309Z,57856.00
2023-05-23T08:57:40.186Z,67968.00
2023-05-23T08:58:40.314Z,74784.00
2023-05-23T08:59:40.076Z,41760.00
2023-05-23T09:00:40.404Z,31232.00
2023-05-23T09:01:40.191Z,24096.00
2023-05-23T09:02:41.469Z,22112.00
2023-05-23T09:03:39.941Z,20416.00
2023-05-23T09:04:40.153Z,19072.00
2023-05-23T09:05:39.912Z,18304.00
2023-05-23T09:06:39.833Z,17984.00
2023-05-23T09:07:39.976Z,17536.00
2023-05-23T09:08:39.863Z,16836.00
2023-05-23T09:09:39.782Z,16564.00
2023-05-23T09:10:39.881Z,16508.00
2023-05-23T09:11:39.835Z,16400.00
2023-05-23T09:12:39.698Z,16176.00
2023-05-23T09:13:39.823Z,15880.00
2023-05-23T09:14:39.731Z,15576.00
2023-05-23T09:15:39.621Z,15372.00
2023-05-23T09:16:39.582Z,15248.00
2023-05-23T09:17:39.478Z,15088.00
2023-05-23T09:18:39.410Z,15440.00
2023-05-23T09:19:40.545Z,15968.00
2023-05-23T09:20:39.512Z,16468.00
2023-05-23T09:21:40.523Z,16544.00
2023-05-23T09:22:39.263Z,16492.00
2023-05-23T09:23:39.255Z,16412.00
2023-05-23T09:24:39.201Z,16232.00
2023-05-23T09:25:39.206Z,15888.00
2023-05-23T09:26:39.330Z,15820.00
2023-05-23T09:27:39.467Z,16232.00
2023-05-23T09:29:00.204Z,17408.00
2023-05-23T09:29:39.042Z,19232.00
2023-05-23T09:30:39.335Z,21408.00
2023-05-23T09:31:38.992Z,23552.00
2023-05-23T09:32:39.185Z,25440.00
2023-05-23T09:33:38.861Z,25856.00
2023-05-23T09:34:38.823Z,25184.00
2023-05-23T09:35:38.803Z,24992.00
2023-05-23T09:36:38.962Z,25376.00
2023-05-23T09:37:38.795Z,26080.00
2023-05-23T09:38:39.836Z,26272.00
2023-05-23T09:39:38.691Z,25920.00
2023-05-23T09:40:38.687Z,24704.00
2023-05-23T09:41:38.562Z,23680.00
2023-05-23T09:42:38.590Z,23424.00
2023-05-23T09:43:38.511Z,23488.00
2023-05-23T09:44:39.634Z,23936.00
2023-05-23T09:45:38.414Z,24256.00
2023-05-23T09:46:38.444Z,24896.00
2023-05-23T09:47:39.506Z,26208.00
2023-05-23T09:48:38.300Z,36480.00
2023-05-23T09:49:40.702Z,34592.00
2023-05-23T09:50:38.349Z,35584.00
2023-05-23T09:51:38.222Z,35520.00
2023-05-23T09:52:38.218Z,34208.00
2023-05-23T09:53:39.299Z,32576.00
2023-05-23T09:54:38.088Z,29952.00
2023-05-23T09:55:39.103Z,27648.00
2023-05-23T09:56:38.007Z,26240.00
2023-05-23T09:57:37.962Z,26208.00
2023-05-23T09:58:38.306Z,26080.00
2023-05-23T09:59:37.886Z,25824.00
2023-05-23T10:00:39.041Z,26368.00
2023-05-23T10:01:37.902Z,28288.00
2023-05-23T10:02:37.807Z,29600.00
2023-05-23T10:03:37.767Z,29696.00
2023-05-23T10:04:38.117Z,30272.00
2023-05-23T10:05:37.700Z,31552.00
2023-05-23T10:06:41.226Z,32320.00
2023-05-23T10:07:37.622Z,33920.00
2023-05-23T10:08:37.552Z,38912.00
2023-05-23T10:09:38.636Z,55456.00
2023-05-23T10:10:37.594Z,87840.00
2023-05-23T10:11:37.480Z,66080.00
2023-05-23T10:12:39.850Z,104160.00
2023-05-23T10:13:37.396Z,131008.00
2023-05-23T10:14:37.415Z,58080.00
2023-05-23T10:15:37.304Z,49952.00
2023-05-23T10:16:37.449Z,48096.00
2023-05-23T10:17:37.239Z,76704.00
2023-05-23T10:18:37.433Z,56256.00
2023-05-23T10:19:37.228Z,57120.00
2023-05-23T10:20:37.238Z,47232.00
2023-05-23T10:21:37.088Z,41824.00
2023-05-23T10:22:37.250Z,38176.00
2023-05-23T10:23:37.014Z,36384.00
2023-05-23T10:24:39.313Z,34912.00
2023-05-23T10:25:36.962Z,35072.00
2023-05-23T10:26:37.096Z,35008.00
2023-05-23T10:27:36.875Z,34528.00
2023-05-23T10:28:37.098Z,32256.00
2023-05-23T10:29:36.830Z,31392.00
2023-05-23T10:30:42.573Z,30400.00
2023-05-23T10:31:36.865Z,30464.00
2023-05-23T10:32:36.948Z,31936.00
2023-05-23T10:33:36.680Z,32224.00
2023-05-23T10:34:37.764Z,31488.00
2023-05-23T10:35:36.634Z,31584.00
2023-05-23T10:36:36.563Z,30560.00
2023-05-23T10:37:36.547Z,30080.00
2023-05-23T10:40:20.910Z,28192.00
2023-05-23T10:41:26.455Z,27360.00
2023-05-23T10:42:15.977Z,27296.00
2023-05-23T10:43:28.683Z,28416.00
2023-05-23T10:44:07.710Z,30112.00
2023-05-23T10:45:07.576Z,32832.00
2023-05-23T10:46:07.795Z,34016.00
2023-05-23T10:47:07.538Z,32736.00
2023-05-23T10:48:07.872Z,32832.00
2023-05-23T10:49:07.448Z,33664.00
2023-05-23T10:50:07.568Z,31840.00
2023-05-23T10:51:07.362Z,29760.00
2023-05-23T10:52:07.626Z,28064.00
2023-05-23T10:53:07.285Z,27136.00
2023-05-23T10:54:07.578Z,26048.00
2023-05-23T10:55:07.218Z,25440.00
2023-05-23T10:56:07.387Z,25792.00
2023-05-23T10:57:07.152Z,27328.00
2023-05-23T10:58:07.403Z,29024.00
2023-05-23T10:59:28.507Z,29504.00
2023-05-23T11:00:07.056Z,31744.00
2023-05-23T11:01:07.221Z,39712.00
2023-05-23T11:02:07.023Z,123456.00
2023-05-23T11:03:07.118Z,110432.00
2023-05-23T11:04:06.940Z,115936.00
2023-05-23T11:05:06.962Z,144288.00
2023-05-23T11:06:07.068Z,157856.00
2023-05-23T11:07:06.803Z,141952.00
2023-05-23T11:08:07.910Z,118144.00
2023-05-23T11:09:07.802Z,108096.00
2023-05-23T11:10:06.699Z,119904.00
2023-05-23T11:11:06.701Z,134720.00
2023-05-23T11:12:06.910Z,134112.00
2023-05-23T11:13:06.627Z,133472.00
2023-05-23T11:14:06.700Z,125472.00
2023-05-23T11:15:06.552Z,119296.00
2023-05-23T11:16:06.851Z,130656.00
2023-05-23T11:17:06.479Z,156480.00
2023-05-23T11:18:06.774Z,167072.00
2023-05-23T11:19:06.471Z,134912.00
2023-05-23T11:20:06.559Z,98976.00
2023-05-23T11:21:06.385Z,93824.00
2023-05-23T11:22:06.331Z,126688.00
2023-05-23T11:23:06.570Z,157056.00
2023-05-23T11:24:06.292Z,136864.00
2023-05-23T11:25:06.373Z,107168.00
2023-05-23T11:26:06.433Z,101216.00
2023-05-23T11:27:06.390Z,130848.00
2023-05-23T11:28:06.176Z,153920.00
2023-05-23T11:29:06.401Z,145792.00
2023-05-23T11:30:06.135Z,114976.00
2023-05-23T11:31:06.215Z,98336.00
2023-05-23T11:32:06.143Z,110368.00
2023-05-23T11:33:06.081Z,124384.00
2023-05-23T11:34:06.029Z,68960.00
2023-05-23T11:35:07.691Z,111168.00
2023-05-23T11:36:05.975Z,42560.00
2023-05-23T11:37:06.052Z,40896.00
2023-05-23T11:38:05.930Z,57728.00
2023-05-23T11:39:05.908Z,39904.00
2023-05-23T11:40:05.885Z,43520.00
2023-05-23T11:41:08.138Z,42496.00
2023-05-23T11:42:05.823Z,48864.00
2023-05-23T11:43:06.927Z,54368.00
2023-05-23T11:44:05.773Z,107776.00
2023-05-23T11:45:05.916Z,65696.00
2023-05-23T11:46:06.007Z,89536.00
2023-05-23T11:47:05.928Z,50560.00
2023-05-23T11:48:05.711Z,43360.00
2023-05-23T11:49:05.752Z,42688.00
2023-05-23T11:50:05.740Z,47104.00
2023-05-23T11:51:05.674Z,38912.00
2023-05-23T11:52:05.759Z,43232.00
2023-05-23T11:53:05.559Z,31168.00
2023-05-23T11:54:06.603Z,27232.00
2023-05-23T11:55:05.466Z,26656.00
2023-05-23T11:56:05.436Z,26976.00
2023-05-23T11:57:05.653Z,27904.00
2023-05-23T11:58:05.598Z,28960.00
2023-05-23T11:59:05.345Z,30464.00
2023-05-23T12:00:06.436Z,32064.00
2023-05-23T12:01:05.283Z,32864.00
2023-05-23T12:02:05.427Z,32128.00
2023-05-23T12:03:05.801Z,31072.00
2023-05-23T12:04:05.501Z,35776.00
2023-05-23T12:05:05.156Z,89536.00
2023-05-23T12:06:05.451Z,32672.00
2023-05-23T12:07:06.331Z,25696.00
2023-05-23T12:08:05.318Z,22688.00
2023-05-23T12:09:05.284Z,20864.00
2023-05-23T12:10:04.988Z,18496.00
2023-05-23T12:11:05.075Z,14604.00
2023-05-23T12:12:04.929Z,12608.00
2023-05-23T12:13:04.897Z,11832.00
2023-05-23T12:14:04.890Z,11760.00
2023-05-23T12:15:05.109Z,12284.00
2023-05-23T12:16:04.889Z,12972.00
2023-05-23T12:17:05.938Z,13256.00
2023-05-23T12:18:05.347Z,13156.00